Time;durP1;ratioP1;P1;durP2;ratioP2;P2;SDS_P1;SDS_P2;PMS_P1;PMS_P2;Temp;Humidity;BMP_temperature;BMP_pressure;BME280_temperature;BME280_humidity;BME280_pressure;Samples;Min_cycle;Max_cycle;Signal;HPM_P1;HPM_P2
2022/01/09 00:01:22;;;;;;;7.85;5.22;;;;;;;4.88;84.57;92563.28;5049831;28;20028;-39
2022/01/09 00:03:48;;;;;;;9.63;4.75;;;;;;;4.83;84.61;92555.22;5050405;28;20028;-39
2022/01/09 00:06:14;;;;;;;9.88;4.85;;;;;;;4.69;85.11;92554.53;5049641;28;20020;-38
2022/01/09 00:08:40;;;;;;;7.10;4.57;;;;;;;4.77;85.17;92558.06;5050137;28;20096;-40
2022/01/09 00:11:06;;;;;;;5.30;4.25;;;;;;;4.79;84.93;92554.81;5050117;28;20468;-38
2022/01/09 00:13:32;;;;;;;8.75;4.32;;;;;;;4.71;84.66;92532.88;5050281;28;20100;-39
2022/01/09 00:15:57;;;;;;;9.43;4.88;;;;;;;4.71;84.57;92524.66;5049713;28;20098;-38
2022/01/09 00:18:23;;;;;;;10.77;6.97;;;;;;;4.85;84.33;92541.75;5049571;28;20237;-38
2022/01/09 00:20:48;;;;;;;7.93;5.22;;;;;;;4.73;84.59;92541.28;5049470;28;20028;-39
2022/01/09 00:23:14;;;;;;;10.73;5.63;;;;;;;4.75;85.07;92549.69;5049545;28;20029;-39
2022/01/09 00:25:39;;;;;;;9.73;5.45;;;;;;;4.85;84.60;92558.16;5048655;28;20028;-39
2022/01/09 00:28:05;;;;;;;11.57;6.70;;;;;;;4.84;84.47;92562.16;5049725;28;20028;-39
2022/01/09 00:30:31;;;;;;;9.38;5.88;;;;;;;4.86;84.87;92556.88;5049764;28;20028;-39
2022/01/09 00:32:56;;;;;;;12.95;6.85;;;;;;;4.69;85.17;92564.75;5049731;28;20456;-39
2022/01/09 00:35:22;;;;;;;9.00;5.68;;;;;;;4.79;85.16;92557.53;5049383;28;20045;-39
2022/01/09 00:37:47;;;;;;;8.52;5.75;;;;;;;4.85;84.91;92558.16;5049430;28;20095;-39
2022/01/09 00:40:14;;;;;;;8.48;5.78;;;;;;;4.89;84.52;92553.09;5049868;28;20086;-39
2022/01/09 00:42:40;;;;;;;7.07;4.85;;;;;;;4.83;84.24;92522.41;5049297;28;20025;-39
2022/01/09 00:45:06;;;;;;;9.25;5.50;;;;;;;4.84;84.12;92549.22;5049514;28;20017;-39
2022/01/09 00:47:32;;;;;;;8.77;5.88;;;;;;;4.94;84.04;92542.00;5048840;28;20021;-39
2022/01/09 00:49:58;;;;;;;7.70;5.70;;;;;;;4.94;83.93;92541.25;5049873;28;20486;-40
2022/01/09 00:52:23;;;;;;;8.60;4.88;;;;;;;4.96;84.14;92530.53;5047032;28;20082;-39
2022/01/09 00:54:49;;;;;;;8.80;6.10;;;;;;;4.96;84.12;92536.72;5049609;28;20112;-39
2022/01/09 00:57:14;;;;;;;6.88;4.43;;;;;;;5.00;83.84;92536.41;5049753;28;20063;-38
2022/01/09 00:59:40;;;;;;;8.30;5.30;;;;;;;5.06;83.59;92537.00;5049484;28;20159;-39
2022/01/09 01:02:05;;;;;;;8.50;6.05;;;;;;;5.08;83.41;92540.69;5049404;28;20101;-38
2022/01/09 01:04:31;;;;;;;8.77;5.43;;;;;;;5.15;82.94;92542.75;5049370;28;20025;-38
2022/01/09 01:06:57;;;;;;;8.57;5.70;;;;;;;5.11;83.24;92536.13;5049566;28;20022;-38
2022/01/09 01:09:24;;;;;;;8.95;5.40;;;;;;;5.12;83.02;92543.06;5049260;28;20017;-38
2022/01/09 01:11:49;;;;;;;10.25;6.35;;;;;;;5.13;83.61;92544.53;5049322;28;20017;-38
2022/01/09 01:14:15;;;;;;;12.48;6.05;;;;;;;5.13;83.16;92539.06;5049579;28;20020;-38
2022/01/09 01:16:41;;;;;;;9.65;5.55;;;;;;;4.98;83.40;92550.59;5049251;28;20410;-39
2022/01/09 01:19:06;;;;;;;9.52;6.32;;;;;;;5.05;83.50;92551.94;5049473;28;20017;-38
2022/01/09 01:21:33;;;;;;;9.00;5.78;;;;;;;5.15;83.13;92547.47;5049293;28;20095;-38
2022/01/09 01:23:58;;;;;;;6.38;3.90;;;;;;;5.12;82.55;92549.28;5048956;28;20025;-39
2022/01/09 01:26:24;;;;;;;13.32;5.88;;;;;;;5.09;83.18;92544.88;5046697;28;20025;-39
2022/01/09 01:28:49;;;;;;;8.93;4.57;;;;;;;4.99;83.36;92548.59;5048895;28;20048;-39
2022/01/09 01:31:15;;;;;;;4.55;3.65;;;;;;;4.79;84.16;92538.41;5049102;28;20013;-38
2022/01/09 01:33:40;;;;;;;6.18;4.40;;;;;;;4.84;84.20;92518.41;5049576;28;20105;-39
2022/01/09 01:36:06;;;;;;;14.57;9.43;;;;;;;4.75;84.17;92530.53;5052328;28;20098;-39
2022/01/09 01:38:32;;;;;;;23.90;13.32;;;;;;;4.63;85.13;92531.34;5052109;28;20025;-38
2022/01/09 01:40:58;;;;;;;13.85;8.80;;;;;;;4.40;86.06;92522.91;5053039;28;20095;-39
2022/01/09 01:43:25;;;;;;;26.45;16.27;;;;;;;4.50;86.11;92527.38;5052531;28;20409;-38
2022/01/09 01:45:50;;;;;;;14.50;9.32;;;;;;;4.71;85.87;92516.47;5052509;28;20035;-39
2022/01/09 01:48:16;;;;;;;8.50;5.53;;;;;;;4.66;85.60;92516.63;5052448;28;20017;-38
2022/01/09 01:50:42;;;;;;;9.93;6.25;;;;;;;4.64;85.68;92525.31;5052614;28;20020;-40
2022/01/09 01:53:12;;;;;;;11.20;5.70;;;;;;;4.75;85.32;92522.34;5052473;28;20025;-40
2022/01/09 01:55:39;;;;;;;17.10;8.00;;;;;;;4.63;84.93;92506.72;5050098;28;20049;-39
2022/01/09 01:58:06;;;;;;;13.93;9.25;;;;;;;4.34;86.63;92516.84;5052549;28;20391;-40
2022/01/09 02:00:33;;;;;;;22.13;8.50;;;;;;;4.31;87.18;92510.44;5052236;28;20032;-39
2022/01/09 02:02:58;;;;;;;14.48;8.65;;;;;;;4.10;88.42;92498.72;5052292;28;20021;-40
2022/01/09 02:05:24;;;;;;;14.73;7.78;;;;;;;4.15;88.40;92506.06;5052423;28;20017;-39
2022/01/09 02:07:51;;;;;;;11.80;7.88;;;;;;;4.15;89.01;92495.16;5052030;28;20025;-39
2022/01/09 02:10:17;;;;;;;12.55;7.28;;;;;;;4.22;89.10;92493.75;5052373;28;20390;-40
2022/01/09 02:12:43;;;;;;;18.35;11.05;;;;;;;4.26;88.77;92496.91;5052034;28;20494;-39
2022/01/09 02:15:27;;;;;;;15.43;9.65;;;;;;;4.45;87.86;92491.97;5052035;28;20024;-39
2022/01/09 02:17:52;;;;;;;14.38;9.45;;;;;;;4.40;87.65;92488.13;5051932;28;20067;-39
2022/01/09 02:20:18;;;;;;;14.30;9.30;;;;;;;4.31;87.45;92446.88;5051942;28;20025;-39
2022/01/09 02:22:43;;;;;;;14.50;9.18;;;;;;;4.44;87.32;92474.13;5051859;28;20052;-39
2022/01/09 02:25:10;;;;;;;13.70;8.43;;;;;;;4.24;88.18;92480.31;5052075;28;20029;-39
2022/01/09 02:27:36;;;;;;;14.43;10.02;;;;;;;4.29;87.92;92476.69;5049428;28;20021;-39
2022/01/09 02:30:01;;;;;;;17.48;11.40;;;;;;;4.11;88.66;92470.16;5051647;28;20112;-39
2022/01/09 02:32:27;;;;;;;14.75;8.30;;;;;;;4.27;88.71;92462.84;5051717;28;20100;-38
2022/01/09 02:34:52;;;;;;;9.25;6.90;;;;;;;4.43;88.26;92465.19;5051611;28;20041;-39
2022/01/09 02:37:18;;;;;;;12.15;6.13;;;;;;;4.40;88.01;92466.25;5051628;28;20509;-39
2022/01/09 02:39:43;;;;;;;12.05;6.60;;;;;;;4.46;87.48;92458.66;5051532;28;20025;-40
2022/01/09 02:42:23;;;;;;;11.98;7.82;;;;;;;4.41;87.76;92456.78;5051832;28;20025;-40
2022/01/09 02:44:49;;;;;;;9.93;6.20;;;;;;;4.40;87.64;92446.38;5051086;28;21360;-40
2022/01/09 02:47:15;;;;;;;13.00;8.38;;;;;;;4.31;87.30;92444.84;5048703;28;20025;-39
2022/01/09 02:49:46;;;;;;;17.88;12.00;;;;;;;4.39;87.81;92434.75;5051338;28;20063;-39
2022/01/09 02:52:24;;;;;;;6.28;4.35;;;;;;;4.45;87.17;92435.34;5051379;28;20540;-39
2022/01/09 02:57:34;;;;;;;7.30;5.43;;;;;;;4.59;86.77;92427.81;5051451;28;20545;-40
2022/01/09 02:59:59;;;;;;;6.65;4.32;;;;;;;4.45;86.70;92421.66;5051179;28;20029;-39
2022/01/09 03:02:25;;;;;;;7.57;4.78;;;;;;;4.55;86.75;92411.72;5051120;28;20051;-39
2022/01/09 03:04:50;;;;;;;10.25;6.82;;;;;;;4.63;86.41;92419.25;5051220;28;20078;-39
2022/01/09 03:07:16;;;;;;;7.75;5.50;;;;;;;4.64;86.26;92418.72;5050348;28;20442;-39
2022/01/09 03:09:42;;;;;;;7.90;5.28;;;;;;;4.62;85.95;92415.78;5049607;28;20075;-39
2022/01/09 03:12:10;;;;;;;10.80;5.93;;;;;;;4.59;86.05;92416.88;5050732;28;20021;-39
2022/01/09 03:14:36;;;;;;;10.23;5.45;;;;;;;4.54;85.80;92415.72;5050446;28;20383;-39
2022/01/09 03:17:02;;;;;;;9.52;5.38;;;;;;;4.50;86.35;92409.13;5051120;28;20031;-39
2022/01/09 03:19:27;;;;;;;8.38;5.20;;;;;;;4.43;86.55;92409.81;5050959;28;20017;-39
2022/01/09 03:21:53;;;;;;;8.27;5.50;;;;;;;4.42;86.39;92400.88;5050603;28;20825;-39
2022/01/09 03:24:18;;;;;;;8.80;5.72;;;;;;;4.40;86.30;92400.66;5050317;28;20017;-40
2022/01/09 03:26:44;;;;;;;7.28;5.20;;;;;;;4.45;86.25;92388.13;5050157;28;20033;-38
2022/01/09 03:29:09;;;;;;;7.20;4.80;;;;;;;4.30;86.75;92383.28;5050600;28;20021;-39
2022/01/09 03:31:35;;;;;;;9.15;5.70;;;;;;;4.34;87.70;92391.88;5050729;28;20055;-39
2022/01/09 03:34:00;;;;;;;9.48;6.88;;;;;;;4.50;86.83;92390.72;5050840;28;20020;-39
2022/01/09 03:36:26;;;;;;;10.32;5.93;;;;;;;4.49;86.77;92383.06;5049874;28;20098;-39
2022/01/09 03:38:51;;;;;;;9.05;5.90;;;;;;;4.45;86.77;92380.69;5050215;28;20100;-40
2022/01/09 03:41:17;;;;;;;9.27;5.93;;;;;;;4.42;87.05;92384.47;5050658;28;20112;-40
2022/01/09 03:43:42;;;;;;;12.90;6.85;;;;;;;4.56;86.38;92379.66;5050273;28;20025;-40
2022/01/09 03:46:08;;;;;;;12.52;8.57;;;;;;;4.69;85.99;92382.31;5050612;28;20223;-41
2022/01/09 03:48:33;;;;;;;11.80;6.75;;;;;;;4.61;86.22;92376.78;5050611;28;20094;-40
2022/01/09 03:50:59;;;;;;;11.02;6.05;;;;;;;4.48;86.49;92379.59;5050932;28;20025;-41
2022/01/09 03:53:24;;;;;;;10.02;6.03;;;;;;;4.35;87.57;92382.41;5050707;28;20020;-40
2022/01/09 03:55:50;;;;;;;12.68;9.25;;;;;;;4.48;87.43;92378.88;5050639;28;20024;-39
2022/01/09 03:58:15;;;;;;;8.25;5.75;;;;;;;4.47;87.19;92380.13;5050118;28;20105;-41
2022/01/09 04:00:41;;;;;;;9.75;4.55;;;;;;;4.50;87.27;92381.81;5050479;28;20079;-38
2022/01/09 04:03:06;;;;;;;12.85;6.15;;;;;;;4.38;87.20;92383.34;5050744;28;20028;-40
2022/01/09 04:05:32;;;;;;;12.30;7.28;;;;;;;4.36;87.54;92381.16;5050442;28;20109;-39
2022/01/09 04:07:57;;;;;;;9.13;6.20;;;;;;;4.50;87.28;92379.78;5050604;28;20025;-40
2022/01/09 04:10:27;;;;;;;8.73;6.13;;;;;;;4.41;87.43;92385.75;5050337;28;20468;-39
2022/01/09 04:12:59;;;;;;;9.82;6.68;;;;;;;4.36;87.77;92388.59;5050664;28;20025;-38
2022/01/09 04:15:25;;;;;;;13.15;7.35;;;;;;;4.27;88.12;92381.59;5050624;28;20456;-39
2022/01/09 04:20:16;;;;;;;12.90;7.93;;;;;;;4.24;88.25;92376.50;5050070;28;20021;-39
2022/01/09 04:22:42;;;;;;;11.95;7.50;;;;;;;4.38;88.12;92407.94;5050649;28;20029;-40
2022/01/09 04:25:08;;;;;;;13.80;8.18;;;;;;;4.30;87.83;92394.22;5050138;28;20490;-39
2022/01/09 04:27:33;;;;;;;8.55;5.97;;;;;;;4.50;87.29;92390.00;5050035;28;20028;-40
2022/01/09 04:29:59;;;;;;;12.23;6.63;;;;;;;4.46;87.07;92393.06;5050158;28;20025;-39
2022/01/09 04:32:25;;;;;;;13.07;7.05;;;;;;;4.48;86.53;92390.53;5050383;28;20024;-40
2022/01/09 04:34:51;;;;;;;10.20;6.78;;;;;;;4.55;86.70;92389.84;5050057;28;20509;-39
2022/01/09 04:37:16;;;;;;;12.98;7.93;;;;;;;4.67;86.42;92392.31;5049470;28;20434;-39
2022/01/09 04:39:42;;;;;;;11.68;8.02;;;;;;;4.74;85.98;92389.63;5049961;28;20114;-39
2022/01/09 04:42:09;;;;;;;10.38;7.20;;;;;;;4.72;85.93;92388.72;5050296;28;20025;-40
2022/01/09 04:44:34;;;;;;;9.55;6.47;;;;;;;4.83;85.27;92380.94;5049911;28;20036;-39
2022/01/09 04:47:05;;;;;;;24.27;13.13;;;;;;;4.83;85.13;92374.75;5050230;28;20079;-39
2022/01/09 04:49:37;;;;;;;27.15;12.50;;;;;;;4.81;85.27;92377.28;5050239;28;20025;-39
2022/01/09 04:52:05;;;;;;;22.45;11.95;;;;;;;4.89;84.67;92387.00;5050257;28;20051;-39
2022/01/09 04:54:31;;;;;;;18.13;10.10;;;;;;;4.78;84.97;92379.09;5049985;28;20083;-40
2022/01/09 04:56:56;;;;;;;17.30;10.00;;;;;;;4.75;85.05;92387.63;5049729;28;20435;-39
2022/01/09 04:59:22;;;;;;;14.43;8.75;;;;;;;4.74;85.22;92375.97;5049873;28;20669;-39
2022/01/09 05:01:47;;;;;;;15.25;9.20;;;;;;;4.80;85.22;92381.28;5049680;28;20036;-39
2022/01/09 05:04:13;;;;;;;10.68;6.47;;;;;;;4.83;84.82;92374.75;5049647;28;20037;-39
2022/01/09 05:06:38;;;;;;;9.88;5.65;;;;;;;4.74;84.69;92369.75;5049972;28;20032;-39
2022/01/09 05:09:04;;;;;;;7.90;5.65;;;;;;;4.69;84.98;92373.38;5050738;28;20058;-40
2022/01/09 05:11:29;;;;;;;8.32;5.65;;;;;;;4.84;84.47;92373.47;5053694;28;20028;-39
2022/01/09 05:13:55;;;;;;;9.55;6.15;;;;;;;4.94;84.05;92382.63;5053929;28;20021;-40
2022/01/09 05:16:20;;;;;;;10.23;8.15;;;;;;;4.80;84.51;92370.34;5053650;28;20017;-39
2022/01/09 05:19:02;;;;;;;13.10;8.55;;;;;;;4.86;84.55;92373.66;5053796;28;20494;-40
2022/01/09 05:21:27;;;;;;;7.07;4.95;;;;;;;4.77;84.18;92355.00;5053752;28;20028;-39
2022/01/09 05:23:53;;;;;;;8.25;5.75;;;;;;;4.84;84.35;92365.25;5053539;28;20237;-39
2022/01/09 05:26:18;;;;;;;12.25;7.85;;;;;;;4.79;84.34;92360.66;5053357;28;20048;-39
2022/01/09 05:28:44;;;;;;;10.95;7.63;;;;;;;4.80;84.30;92360.13;5053453;28;20021;-40
2022/01/09 05:31:09;;;;;;;9.77;5.57;;;;;;;4.70;84.36;92347.50;5052958;28;20540;-39
2022/01/09 05:33:35;;;;;;;14.50;7.85;;;;;;;4.74;84.42;92347.88;5053470;28;20032;-39
2022/01/09 05:36:00;;;;;;;11.07;6.53;;;;;;;4.74;83.62;92345.88;5052884;28;20409;-39
2022/01/09 05:38:26;;;;;;;9.65;6.57;;;;;;;4.65;84.25;92348.38;5053292;28;20044;-39
2022/01/09 05:40:51;;;;;;;10.30;6.85;;;;;;;4.63;84.46;92337.97;5053397;28;20021;-39
2022/01/09 05:43:17;;;;;;;23.15;11.00;;;;;;;4.44;85.16;92326.56;5053344;28;20465;-39
2022/01/09 05:45:43;;;;;;;7.05;4.45;;;;;;;4.43;85.20;92339.47;5052791;28;20017;-39
2022/01/09 05:48:08;;;;;;;7.95;4.78;;;;;;;4.33;84.84;92319.34;5052507;28;20025;-40
2022/01/09 05:50:34;;;;;;;6.28;4.45;;;;;;;4.53;84.88;92335.00;5053789;28;20017;-40
2022/01/09 05:53:00;;;;;;;7.70;5.35;;;;;;;4.51;84.99;92336.78;5055934;28;20077;-39
2022/01/09 05:55:26;;;;;;;6.15;4.68;;;;;;;4.48;84.89;92335.84;5053533;28;20237;-39
2022/01/09 05:57:51;;;;;;;9.27;5.45;;;;;;;4.47;85.19;92334.41;5055088;28;20035;-39
2022/01/09 06:00:17;;;;;;;20.33;17.00;;;;;;;4.41;85.25;92313.97;5051948;28;20112;-38
2022/01/09 06:02:42;;;;;;;12.18;8.27;;;;;;;4.51;85.32;92326.59;5051886;28;20049;-38
2022/01/09 06:05:08;;;;;;;12.70;8.00;;;;;;;4.58;85.04;92330.66;5056920;28;20490;-39
2022/01/09 06:07:38;;;;;;;12.18;8.93;;;;;;;4.60;84.91;92334.31;5055710;28;20025;-38
2022/01/09 06:10:04;;;;;;;20.75;8.73;;;;;;;4.69;84.89;92335.09;5055086;28;20035;-39
2022/01/09 06:12:30;;;;;;;15.90;9.00;;;;;;;4.57;85.12;92335.38;5051496;28;20017;-39
2022/01/09 06:14:55;;;;;;;15.50;8.02;;;;;;;4.53;84.96;92334.25;5051545;28;20028;-38
2022/01/09 06:17:21;;;;;;;15.60;9.02;;;;;;;4.39;85.22;92325.44;5051720;28;20456;-39
2022/01/09 06:19:46;;;;;;;12.50;5.95;;;;;;;4.28;86.31;92333.91;5051777;28;20048;-39
2022/01/09 06:22:17;;;;;;;11.25;6.60;;;;;;;4.33;86.38;92337.78;5051781;28;20104;-39
2022/01/09 06:24:44;;;;;;;12.20;7.57;;;;;;;4.33;86.82;92338.47;5051476;28;20033;-40
2022/01/09 06:27:09;;;;;;;9.80;5.72;;;;;;;4.31;86.28;92340.31;5049883;28;20116;-40
2022/01/09 06:29:34;;;;;;;9.45;5.90;;;;;;;4.39;86.18;92333.63;5051035;28;20113;-39
2022/01/09 06:32:00;;;;;;;8.27;4.95;;;;;;;4.50;85.93;92351.75;5050737;28;20032;-40
2022/01/09 06:34:25;;;;;;;8.07;4.97;;;;;;;4.63;84.49;92352.34;5050710;28;20016;-40
2022/01/09 06:36:51;;;;;;;6.93;4.80;;;;;;;4.56;84.58;92346.84;5050386;28;20104;-39
2022/01/09 06:39:16;;;;;;;7.03;5.15;;;;;;;4.52;84.97;92358.13;5050691;28;20550;-40
2022/01/09 06:41:42;;;;;;;8.30;5.90;;;;;;;4.51;84.48;92356.66;5050056;28;20033;-40
2022/01/09 06:44:07;;;;;;;13.02;6.53;;;;;;;4.53;84.51;92354.13;5049881;28;20055;-40
2022/01/09 06:46:33;;;;;;;9.98;6.35;;;;;;;4.56;84.59;92358.53;5049708;28;20083;-39
2022/01/09 06:48:58;;;;;;;10.40;6.25;;;;;;;4.59;84.63;92351.97;5049171;28;20032;-41
2022/01/09 06:51:24;;;;;;;12.15;7.75;;;;;;;4.74;84.31;92356.09;5049316;28;20112;-39
2022/01/09 06:53:49;;;;;;;16.85;10.55;;;;;;;4.81;83.88;92360.88;5049725;28;20100;-40
2022/01/09 06:56:15;;;;;;;17.27;10.65;;;;;;;4.90;83.63;92363.84;5049339;28;20025;-40
2022/01/09 06:58:40;;;;;;;10.18;7.32;;;;;;;4.88;82.97;92355.44;5048863;28;20104;-39
2022/01/09 07:01:06;;;;;;;13.55;8.82;;;;;;;4.82;83.19;92356.84;5049921;28;20025;-39
2022/01/09 07:03:31;;;;;;;17.42;10.90;;;;;;;4.81;83.45;92361.59;5049847;28;20060;-42
2022/01/09 07:05:57;;;;;;;11.93;8.07;;;;;;;4.87;82.42;92354.00;5049786;28;20031;-40
2022/01/09 07:08:22;;;;;;;11.07;8.13;;;;;;;4.88;82.44;92366.38;5049628;28;20498;-40
2022/01/09 07:10:48;;;;;;;14.32;9.00;;;;;;;4.93;82.04;92337.41;5049620;28;20112;-39
2022/01/09 07:13:15;;;;;;;19.33;11.75;;;;;;;5.09;81.74;92352.66;5049852;28;20112;-40
2022/01/09 07:15:41;;;;;;;35.42;18.70;;;;;;;5.21;81.73;92359.25;5049977;28;20025;-40
2022/01/09 07:18:06;;;;;;;21.75;10.80;;;;;;;5.11;81.26;92363.78;5049835;28;20052;-39
2022/01/09 07:20:32;;;;;;;20.40;9.68;;;;;;;5.08;81.59;92353.91;5049837;28;20054;-39
2022/01/09 07:22:58;;;;;;;13.93;8.75;;;;;;;5.09;81.60;92349.91;5049520;28;20043;-40
2022/01/09 07:25:23;;;;;;;13.95;8.32;;;;;;;5.21;81.16;92348.31;5051678;28;20017;-40
2022/01/09 07:27:49;;;;;;;19.33;11.52;;;;;;;5.33;80.65;92352.94;5049331;28;20025;-39
2022/01/09 07:30:14;;;;;;;25.48;15.85;;;;;;;5.22;80.86;92347.03;5049678;28;20082;-40
2022/01/09 07:32:40;;;;;;;19.70;12.20;;;;;;;5.34;81.26;92350.94;5048788;28;20098;-39
2022/01/09 07:35:06;;;;;;;22.92;11.70;;;;;;;5.45;81.03;92356.09;5048247;28;20024;-40
2022/01/09 07:37:32;;;;;;;18.02;10.45;;;;;;;5.56;80.43;92355.75;5047402;28;20399;-40
2022/01/09 07:39:58;;;;;;;12.88;8.18;;;;;;;5.46;79.23;92352.06;5047586;28;20078;-39
2022/01/09 07:42:24;;;;;;;13.35;7.90;;;;;;;5.32;79.55;92348.75;5047304;28;20032;-39
2022/01/09 07:44:50;;;;;;;10.95;6.07;;;;;;;5.20;79.92;92346.84;5047414;28;20036;-39
2022/01/09 07:47:15;;;;;;;15.23;8.73;;;;;;;5.19;80.57;92348.88;5047098;28;20045;-38
2022/01/09 07:49:41;;;;;;;11.02;6.80;;;;;;;4.92;81.56;92338.69;5047597;28;20023;-38
2022/01/09 07:52:06;;;;;;;10.40;5.18;;;;;;;5.04;81.08;92340.59;5048466;28;20029;-39
2022/01/09 07:54:32;;;;;;;12.15;7.63;;;;;;;4.96;80.74;92350.75;5048854;28;20020;-41
2022/01/09 07:56:57;;;;;;;12.50;6.70;;;;;;;4.80;82.15;92348.47;5048589;28;20528;-38
2022/01/09 07:59:23;;;;;;;12.68;7.90;;;;;;;4.76;82.92;92342.59;5047101;28;20025;-40
2022/01/09 08:01:49;;;;;;;12.65;7.20;;;;;;;4.79;83.25;92352.47;5046517;28;20418;-38
2022/01/09 08:04:15;;;;;;;12.80;7.15;;;;;;;4.71;83.36;92348.94;5046429;28;20111;-39
2022/01/09 08:06:41;;;;;;;10.70;6.45;;;;;;;4.91;83.16;92354.38;5046651;28;20107;-41
2022/01/09 08:09:06;;;;;;;11.23;7.38;;;;;;;4.95;82.34;92351.28;5046426;28;20021;-39
2022/01/09 08:11:32;;;;;;;12.55;7.22;;;;;;;5.00;82.12;92347.69;5045663;28;20116;-41
2022/01/09 08:13:57;;;;;;;21.83;6.65;;;;;;;4.96;81.95;92336.34;5046480;28;20033;-40
2022/01/09 08:16:23;;;;;;;9.38;6.22;;;;;;;4.73;81.85;92341.69;5046227;28;20037;-41
2022/01/09 08:18:49;;;;;;;9.88;6.13;;;;;;;4.88;81.07;92321.88;5046771;28;20111;-41
2022/01/09 08:21:19;;;;;;;10.23;6.85;;;;;;;4.95;81.41;92338.34;5046328;28;20102;-41
2022/01/09 08:23:46;;;;;;;12.15;7.03;;;;;;;4.98;81.83;92340.00;5046364;28;20467;-42
2022/01/09 08:26:12;;;;;;;10.93;6.97;;;;;;;5.09;81.55;92336.94;5044585;28;20039;-40
2022/01/09 08:28:41;;;;;;;10.18;7.15;;;;;;;5.24;80.86;92331.53;5046496;28;20025;-40
2022/01/09 08:31:07;;;;;;;12.70;6.85;;;;;;;5.24;80.65;92328.81;5045959;28;20057;-41
2022/01/09 08:33:33;;;;;;;10.07;6.93;;;;;;;5.14;81.32;92329.84;5046220;28;20028;-41
2022/01/09 08:35:58;;;;;;;14.13;8.88;;;;;;;5.33;80.66;92328.28;5045485;28;20091;-40
2022/01/09 08:38:25;;;;;;;16.95;9.98;;;;;;;5.41;80.57;92333.81;5045526;28;20053;-41
2022/01/09 08:40:50;;;;;;;15.18;9.43;;;;;;;5.20;80.74;92333.91;5045786;28;20579;-41
2022/01/09 08:43:16;;;;;;;12.60;7.68;;;;;;;5.38;80.59;92326.66;5046398;28;20024;-41
2022/01/09 08:45:41;;;;;;;14.45;9.95;;;;;;;5.47;80.94;92328.91;5050411;28;20502;-42
2022/01/09 08:48:07;;;;;;;14.80;7.65;;;;;;;5.61;80.24;92326.75;5051279;28;20535;-41
2022/01/09 08:50:33;;;;;;;13.02;8.30;;;;;;;5.56;80.19;92320.16;5051362;28;20139;-41
2022/01/09 08:52:58;;;;;;;11.85;7.43;;;;;;;5.59;79.63;92327.28;5051179;28;20021;-40
2022/01/09 08:55:24;;;;;;;14.90;8.80;;;;;;;5.78;79.55;92332.44;5051226;28;20449;-41
2022/01/09 08:57:50;;;;;;;13.30;8.30;;;;;;;5.56;79.27;92330.38;5051074;28;20420;-41
2022/01/09 09:00:18;;;;;;;12.88;7.85;;;;;;;5.48;80.14;92322.13;5051497;28;20442;-41
2022/01/09 09:02:44;;;;;;;14.75;8.05;;;;;;;5.39;80.12;92317.91;5049716;28;20299;-40
2022/01/09 09:05:09;;;;;;;13.98;9.18;;;;;;;5.44;80.49;92315.53;5051006;28;20036;-40
2022/01/09 09:07:35;;;;;;;12.88;8.45;;;;;;;5.45;80.53;92315.03;5050992;28;20052;-41
2022/01/09 09:10:04;;;;;;;11.85;8.07;;;;;;;5.41;80.24;92311.91;5050298;28;20147;-40
2022/01/09 09:12:31;;;;;;;11.85;8.02;;;;;;;5.45;80.24;92311.56;5049563;28;20063;-40
2022/01/09 09:14:58;;;;;;;13.93;8.32;;;;;;;5.44;79.92;92304.59;5049631;28;20126;-40
2022/01/09 09:17:24;;;;;;;13.52;8.77;;;;;;;5.48;80.41;92294.75;5049992;28;20051;-40
2022/01/09 09:19:49;;;;;;;16.08;8.68;;;;;;;5.62;79.82;92287.13;5050139;28;20198;-41
2022/01/09 09:22:15;;;;;;;10.60;7.07;;;;;;;5.77;79.44;92285.16;5050149;28;20036;-41
2022/01/09 09:24:41;;;;;;;11.95;7.50;;;;;;;5.84;78.45;92281.72;5050633;28;20054;-41
2022/01/09 09:27:06;;;;;;;22.80;14.48;;;;;;;5.88;78.57;92290.31;5048413;28;20132;-38
2022/01/09 09:29:32;;;;;;;12.90;7.88;;;;;;;5.95;77.98;92289.59;5049897;28;20035;-37
2022/01/09 09:31:58;;;;;;;11.00;7.07;;;;;;;5.91;77.80;92291.94;5050343;28;20107;-38
2022/01/09 09:34:23;;;;;;;12.38;8.25;;;;;;;5.67;77.56;92276.03;5051028;28;20048;-41
2022/01/09 09:36:50;;;;;;;11.15;8.00;;;;;;;5.67;76.77;92270.53;5050291;28;20071;-41
2022/01/09 09:39:15;;;;;;;11.10;7.20;;;;;;;5.92;76.89;92282.47;5050970;28;20090;-41
2022/01/09 09:41:41;;;;;;;11.77;7.93;;;;;;;5.94;76.23;92265.47;5050771;28;20033;-42
2022/01/09 09:44:09;;;;;;;12.70;8.77;;;;;;;5.83;76.59;92241.16;5050812;28;20036;-41
2022/01/09 09:46:36;;;;;;;13.20;7.90;;;;;;;5.93;76.46;92250.31;5050234;28;20720;-42
2022/01/09 09:49:02;;;;;;;14.25;8.85;;;;;;;5.99;77.43;92246.13;5050655;28;20025;-38
2022/01/09 09:51:29;;;;;;;15.85;9.00;;;;;;;5.92;77.11;92235.16;5051049;28;20055;-40
2022/01/09 09:53:56;;;;;;;11.90;7.53;;;;;;;5.91;76.64;92242.63;5050551;28;20171;-40
2022/01/09 09:56:22;;;;;;;21.90;11.77;;;;;;;5.82;77.46;92245.19;5049331;28;20112;-40
2022/01/09 09:58:51;;;;;;;13.25;8.70;;;;;;;5.67;77.01;92221.25;5050159;28;20107;-41
2022/01/09 10:01:29;;;;;;;13.82;8.30;;;;;;;5.78;77.62;92228.38;5049570;28;20065;-40
2022/01/09 10:04:08;;;;;;;15.43;9.32;;;;;;;5.76;77.85;92230.94;5049865;28;20029;-41
2022/01/09 10:06:42;;;;;;;15.98;10.20;;;;;;;5.68;78.07;92246.63;5048739;28;20063;-41
2022/01/09 10:09:13;;;;;;;14.10;9.38;;;;;;;5.71;78.36;92238.06;5047922;28;20113;-39
2022/01/09 10:11:43;;;;;;;17.92;9.43;;;;;;;5.66;79.11;92238.22;5048552;28;20052;-41
2022/01/09 10:14:15;;;;;;;16.10;9.20;;;;;;;5.86;78.84;92232.59;5041021;28;20025;-42
2022/01/09 10:16:41;;;;;;;15.90;9.48;;;;;;;5.85;78.71;92233.88;5049080;28;20033;-41
2022/01/09 10:19:07;;;;;;;16.60;10.45;;;;;;;5.96;77.93;92235.50;5049681;28;20035;-39
2022/01/09 10:21:32;;;;;;;15.48;10.15;;;;;;;5.83;77.92;92224.72;5048568;28;20090;-41
2022/01/09 10:24:05;;;;;;;16.58;9.77;;;;;;;5.87;77.90;92225.84;5048287;28;20071;-39
2022/01/09 10:26:33;;;;;;;15.70;10.18;;;;;;;5.82;78.24;92210.31;5046850;28;20036;-40
2022/01/09 10:28:59;;;;;;;17.50;11.33;;;;;;;5.59;78.95;92217.75;5048600;28;20086;-40
2022/01/09 10:31:26;;;;;;;17.63;10.15;;;;;;;5.61;79.17;92212.47;5081419;28;20029;-40
2022/01/09 10:33:56;;;;;;;16.75;10.57;;;;;;;5.49;79.50;92214.13;5049297;28;20112;-43
2022/01/09 10:36:37;;;;;;;15.63;10.85;;;;;;;5.68;78.96;92208.28;5048908;28;20028;-41
2022/01/09 10:39:10;;;;;;;19.17;11.82;;;;;;;5.67;79.35;92224.00;5049439;28;20020;-42
2022/01/09 10:41:58;;;;;;;17.92;11.15;;;;;;;5.71;78.77;92215.41;5049191;28;20020;-39
2022/01/09 10:44:30;;;;;;;19.40;11.10;;;;;;;5.72;78.95;92211.38;5049567;28;20103;-41
2022/01/09 10:47:00;;;;;;;16.95;10.05;;;;;;;5.79;77.87;92202.44;5049059;28;20029;-41
2022/01/09 10:49:42;;;;;;;16.00;10.50;;;;;;;5.91;77.61;92204.28;5048786;28;20029;-42
2022/01/09 10:52:15;;;;;;;18.48;10.82;;;;;;;6.00;77.24;92206.47;5047801;28;20037;-40
2022/01/09 10:54:46;;;;;;;20.33;9.13;;;;;;;5.93;76.40;92204.47;5048667;28;20028;-40
2022/01/09 10:57:17;;;;;;;14.82;8.88;;;;;;;5.65;77.38;92199.16;5048812;28;20056;-40
2022/01/09 10:59:44;;;;;;;15.82;10.48;;;;;;;5.70;78.02;92192.75;5048043;28;20033;-40
2022/01/09 11:02:12;;;;;;;15.80;10.40;;;;;;;5.84;76.87;92188.59;5048235;28;20579;-40
2022/01/09 11:04:46;;;;;;;15.25;9.18;;;;;;;5.76;77.44;92179.63;5049358;28;20032;-40
2022/01/09 11:07:12;;;;;;;16.00;9.25;;;;;;;5.86;76.69;92177.84;5048343;28;20117;-40
2022/01/09 11:09:39;;;;;;;13.02;7.57;;;;;;;5.90;76.37;92183.66;5049265;28;20029;-40
2022/01/09 11:12:08;;;;;;;13.07;8.38;;;;;;;6.04;76.03;92179.44;5047295;28;20021;-41
2022/01/09 11:14:39;;;;;;;;;;;;;;;6.04;76.48;92179.44;5048476;28;20207;-40
2022/01/09 11:17:06;;;;;;;19.10;10.98;;;;;;;6.10;76.22;92182.75;5047795;28;19920;-43
2022/01/09 11:19:33;;;;;;;14.25;9.07;;;;;;;6.11;75.10;92181.44;5047400;28;20409;-40
2022/01/09 11:22:01;;;;;;;15.63;9.82;;;;;;;6.09;75.38;92186.75;5047835;28;20035;-41
2022/01/09 11:24:46;;;;;;;15.40;8.77;;;;;;;6.17;74.84;92177.78;5048064;28;20127;-41
2022/01/09 11:27:22;;;;;;;15.98;9.40;;;;;;;6.20;75.13;92176.66;5044489;28;20414;-40
2022/01/09 11:29:50;;;;;;;13.82;8.43;;;;;;;6.38;73.83;92164.59;5045687;28;20035;-40
2022/01/09 11:32:36;;;;;;;12.27;8.00;;;;;;;6.33;73.82;92170.97;5047488;28;20024;-40
2022/01/09 11:35:25;;;;;;;12.35;8.23;;;;;;;6.41;73.76;92161.44;5043927;28;20435;-40
2022/01/09 11:37:54;;;;;;;;;;;;;;;6.53;73.80;92150.81;5046088;28;20044;-41